Time;durP1;ratioP1;P1;durP2;ratioP2;P2;SDS_P1;SDS_P2;PMS_P1;PMS_P2;Temp;Humidity;BMP_temperature;BMP_pressure;BME280_temperature;BME280_humidity;BME280_pressure;Samples;Min_cycle;Max_cycle;Signal;HPM_P1;HPM_P2
2023/03/31 00:01:51;;;;;;;10.23;5.22;;;;;;;8.64;98.31;98211.13;1763962;80;21537;-59
2023/03/31 00:04:22;;;;;;;10.08;4.37;;;;;;;8.63;97.84;98203.80;1768522;80;20959;-59
2023/03/31 00:06:46;;;;;;;11.33;5.78;;;;;;;8.59;97.59;98194.50;1771207;80;21039;-59
2023/03/31 00:09:17;;;;;;;9.58;5.12;;;;;;;8.63;97.61;98198.59;1766285;80;20978;-60
2023/03/31 00:11:43;;;;;;;8.08;4.83;;;;;;;8.61;97.58;98191.34;1764030;80;20969;-60
2023/03/31 00:14:09;;;;;;;8.50;4.28;;;;;;;8.57;97.72;98182.52;1765753;80;21639;-58
2023/03/31 00:16:37;;;;;;;10.15;4.08;;;;;;;8.53;97.44;98181.89;1765711;80;20963;-60
2023/03/31 00:19:05;;;;;;;8.95;4.17;;;;;;;8.49;97.50;98193.44;1769924;80;20994;-60
2023/03/31 00:21:35;;;;;;;9.83;4.50;;;;;;;8.46;97.42;98194.94;1766067;80;20978;-60
2023/03/31 00:24:04;;;;;;;7.83;4.15;;;;;;;8.41;97.39;98196.52;1768426;80;21026;-59
2023/03/31 00:26:32;;;;;;;12.10;4.80;;;;;;;8.38;97.41;98197.14;1774864;80;21045;-60
2023/03/31 00:28:59;;;;;;;8.45;4.37;;;;;;;8.34;97.40;98200.84;1784377;78;21638;-59
2023/03/31 00:31:27;;;;;;;10.32;5.10;;;;;;;8.33;97.36;98192.22;1800455;78;21471;-59
2023/03/31 00:33:54;;;;;;;10.13;4.87;;;;;;;8.34;97.40;98194.35;1810208;78;21043;-59
2023/03/31 00:36:25;;;;;;;;;;;;;;;8.34;97.45;98194.35;1805935;78;20974;-60
2023/03/31 00:38:50;;;;;;;11.25;4.83;;;;;;;8.34;97.77;98195.65;1800130;78;20149;-59
2023/03/31 00:41:17;;;;;;;9.95;4.53;;;;;;;8.34;97.53;98194.35;1796381;78;21617;-59
2023/03/31 00:44:02;;;;;;;11.00;4.67;;;;;;;8.34;97.75;98200.84;1794904;78;20992;-59
2023/03/31 00:46:41;;;;;;;11.20;5.03;;;;;;;8.32;97.75;98188.40;1780473;78;21128;-59
2023/03/31 00:49:13;;;;;;;9.75;4.53;;;;;;;8.33;97.57;98187.48;1794795;78;21053;-60
2023/03/31 00:51:41;;;;;;;8.48;4.20;;;;;;;8.32;97.77;98184.06;1788568;78;21049;-59
2023/03/31 00:54:08;;;;;;;9.75;4.42;;;;;;;8.35;97.81;98185.64;1792346;78;21093;-59
2023/03/31 00:56:38;;;;;;;10.58;4.15;;;;;;;8.36;97.79;98184.70;1794396;78;21176;-60
2023/03/31 00:59:08;;;;;;;10.38;4.17;;;;;;;8.25;97.94;98164.56;1791885;78;21544;-58
2023/03/31 01:01:38;;;;;;;8.88;4.35;;;;;;;8.37;98.13;98178.55;1787336;78;21025;-59
2023/03/31 01:04:08;;;;;;;7.45;3.37;;;;;;;8.38;97.99;98172.44;1803425;78;21116;-59
2023/03/31 01:06:41;;;;;;;8.88;3.98;;;;;;;8.37;97.98;98168.98;1795990;78;20989;-60
2023/03/31 01:09:08;;;;;;;11.57;4.33;;;;;;;8.36;98.42;98174.30;1795939;78;21124;-59
2023/03/31 01:11:35;;;;;;;7.35;3.55;;;;;;;8.34;98.08;98170.94;1804868;78;20973;-59
2023/03/31 01:14:03;;;;;;;7.45;3.33;;;;;;;8.34;98.18;98165.74;1796610;78;21052;-59
2023/03/31 01:16:29;;;;;;;;;;;;;;;8.30;98.04;98167.23;1793766;78;21556;-59
2023/03/31 01:18:56;;;;;;;6.67;3.20;;;;;;;8.28;98.05;98170.39;1768480;79;20153;-60
2023/03/31 01:21:41;;;;;;;11.68;3.08;;;;;;;8.24;98.59;98166.33;1800903;78;21045;-59
2023/03/31 01:24:30;;;;;;;8.55;3.47;;;;;;;8.22;98.36;98173.38;1791841;78;21026;-59
2023/03/31 01:27:05;;;;;;;7.08;3.60;;;;;;;8.22;98.48;98172.08;1796272;78;20991;-59
2023/03/31 01:29:55;;;;;;;11.33;3.83;;;;;;;8.25;98.59;98171.06;1800649;78;21595;-60
2023/03/31 01:32:37;;;;;;;10.55;4.45;;;;;;;8.26;99.01;98167.08;1794413;78;21022;-60
2023/03/31 01:35:10;;;;;;;8.28;3.67;;;;;;;8.27;99.50;98160.94;1799966;78;21561;-59
2023/03/31 01:37:58;;;;;;;9.70;4.50;;;;;;;8.30;99.00;98165.11;1795627;78;21012;-60
2023/03/31 01:40:40;;;;;;;7.10;3.60;;;;;;;8.33;98.81;98161.48;1795804;78;20982;-60
2023/03/31 01:43:25;;;;;;;9.05;4.40;;;;;;;8.33;98.64;98158.88;1799182;78;21073;-58
2023/03/31 01:46:17;;;;;;;7.80;3.60;;;;;;;8.34;98.63;98164.45;1787979;78;21021;-59
2023/03/31 01:49:16;;;;;;;11.12;4.08;;;;;;;8.32;98.95;98162.39;1797860;78;21307;-60
2023/03/31 01:51:52;;;;;;;9.53;3.85;;;;;;;8.28;99.03;98165.19;1794620;78;20968;-60
2023/03/31 01:54:22;;;;;;;9.90;3.45;;;;;;;8.29;99.25;98168.66;1797123;78;21092;-59
2023/03/31 01:56:58;;;;;;;12.82;3.25;;;;;;;8.28;99.65;98157.39;1798381;78;21053;-59
2023/03/31 01:59:31;;;;;;;13.30;3.27;;;;;;;8.26;99.77;98157.98;1796185;78;21037;-60
2023/03/31 02:02:00;;;;;;;9.05;3.77;;;;;;;8.26;99.27;98159.27;1800701;78;21112;-60
2023/03/31 02:04:43;;;;;;;7.87;2.87;;;;;;;8.26;100.00;98161.88;1795424;78;21089;-59
2023/03/31 02:07:13;;;;;;;9.63;3.15;;;;;;;8.27;100.00;98158.33;1796853;78;21025;-60
2023/03/31 02:09:43;;;;;;;6.33;3.20;;;;;;;8.24;99.86;98145.53;1792131;78;21088;-59
2023/03/31 02:12:12;;;;;;;8.20;3.37;;;;;;;8.26;100.00;98154.08;1796620;78;21033;-59
2023/03/31 02:14:42;;;;;;;8.95;3.20;;;;;;;8.28;99.69;98149.59;1798557;78;21035;-59
2023/03/31 02:17:13;;;;;;;6.10;3.25;;;;;;;8.32;99.95;98154.59;1799359;78;21553;-60
2023/03/31 02:19:42;;;;;;;7.05;3.67;;;;;;;8.35;99.69;98153.13;1799599;78;21037;-60
2023/03/31 02:22:10;;;;;;;9.03;3.12;;;;;;;8.37;99.75;98153.84;1797142;78;21504;-59
2023/03/31 02:24:39;;;;;;;8.55;3.30;;;;;;;8.36;99.97;98148.28;1803310;78;21093;-61
2023/03/31 02:27:27;;;;;;;8.28;3.37;;;;;;;8.34;100.00;98155.34;1794906;78;21058;-59
2023/03/31 02:29:55;;;;;;;6.10;3.55;;;;;;;8.33;100.00;98154.98;1796974;78;21042;-59
2023/03/31 02:32:31;;;;;;;6.85;3.30;;;;;;;8.30;100.00;98150.34;1795833;78;21041;-59
2023/03/31 02:34:58;;;;;;;7.83;3.60;;;;;;;8.28;100.00;98148.77;1794152;78;21058;-60
2023/03/31 02:37:26;;;;;;;9.95;3.60;;;;;;;8.28;100.00;98148.77;1797489;78;21020;-59
2023/03/31 02:39:54;;;;;;;;;;;;;;;8.27;100.00;98146.63;1804345;78;21112;-59
2023/03/31 02:42:21;;;;;;;9.45;3.83;;;;;;;8.27;100.00;98138.83;1797148;78;20485;-59
2023/03/31 02:44:48;;;;;;;11.63;3.45;;;;;;;8.29;100.00;98140.05;1793266;78;21084;-58
2023/03/31 02:47:17;;;;;;;6.58;3.15;;;;;;;8.27;100.00;98141.43;1795781;78;21520;-60
2023/03/31 02:49:47;;;;;;;7.45;3.58;;;;;;;8.28;100.00;98139.19;1793951;78;21002;-60
2023/03/31 02:52:37;;;;;;;4.80;3.40;;;;;;;8.28;100.00;98135.29;1793676;78;20970;-58
2023/03/31 02:55:32;;;;;;;10.18;4.12;;;;;;;8.29;100.00;98138.28;1799317;78;21057;-59
2023/03/31 02:58:07;;;;;;;7.62;3.52;;;;;;;8.30;100.00;98140.41;1794399;78;20990;-60
2023/03/31 03:00:50;;;;;;;9.23;3.87;;;;;;;8.30;100.00;98135.20;1780219;79;21035;-60
2023/03/31 03:03:35;;;;;;;8.25;3.42;;;;;;;8.29;100.00;98135.68;1776077;79;21069;-60
2023/03/31 03:06:19;;;;;;;7.45;3.47;;;;;;;8.27;100.00;98124.53;1765481;79;21113;-59
2023/03/31 03:09:18;;;;;;;7.55;3.72;;;;;;;8.22;100.00;98129.18;1739177;81;21143;-59
2023/03/31 03:11:54;;;;;;;11.28;4.03;;;;;;;8.21;100.00;98127.52;1746016;81;21539;-59
2023/03/31 03:14:26;;;;;;;8.13;3.55;;;;;;;8.21;100.00;98121.02;1752722;81;21151;-59
2023/03/31 03:16:56;;;;;;;8.58;3.20;;;;;;;8.20;100.00;98115.44;1734543;81;21144;-60
2023/03/31 03:19:23;;;;;;;8.98;3.52;;;;;;;8.19;100.00;98115.08;1737513;81;21104;-60
2023/03/31 03:21:50;;;;;;;11.20;3.98;;;;;;;8.18;100.00;98111.30;1794118;78;21580;-60
2023/03/31 03:24:17;;;;;;;5.35;3.42;;;;;;;8.16;100.00;98106.17;1796100;78;21092;-58
2023/03/31 03:26:45;;;;;;;5.90;3.20;;;;;;;8.13;100.00;98103.77;1791457;78;21592;-59
2023/03/31 03:29:13;;;;;;;11.97;4.03;;;;;;;8.12;100.00;98103.38;1793279;78;21234;-58
2023/03/31 03:31:41;;;;;;;9.50;3.80;;;;;;;8.12;100.00;98111.18;1799673;78;21083;-58
2023/03/31 03:34:08;;;;;;;6.87;3.65;;;;;;;8.15;100.00;98114.91;1795820;78;21017;-59
2023/03/31 03:36:36;;;;;;;;;;;;;;;8.18;100.00;98114.72;1796593;78;21041;-59
2023/03/31 03:39:04;;;;;;;10.65;3.95;;;;;;;8.21;100.00;98124.92;1798245;78;20237;-59
2023/03/31 03:41:32;;;;;;;18.55;4.28;;;;;;;8.23;100.00;98125.67;1798594;78;21065;-58
2023/03/31 03:43:59;;;;;;;10.08;3.60;;;;;;;8.25;100.00;98125.08;1805644;78;21113;-60
2023/03/31 03:46:26;;;;;;;8.85;3.58;;;;;;;8.28;100.00;98131.39;1799535;78;21100;-60
2023/03/31 03:48:52;;;;;;;8.55;3.37;;;;;;;8.33;100.00;98127.68;1798746;78;20994;-60
2023/03/31 03:51:19;;;;;;;6.12;3.02;;;;;;;8.36;100.00;98132.69;1782237;78;21050;-59
2023/03/31 03:53:45;;;;;;;11.33;3.40;;;;;;;8.38;100.00;98128.23;1799087;78;21108;-59
2023/03/31 03:56:11;;;;;;;7.30;3.87;;;;;;;8.40;100.00;98128.97;1795892;78;20971;-59
2023/03/31 03:58:37;;;;;;;10.48;3.33;;;;;;;8.41;100.00;98118.48;1798229;78;21036;-60
2023/03/31 04:01:04;;;;;;;8.75;3.50;;;;;;;8.41;100.00;98117.19;1801429;78;21005;-59
2023/03/31 04:03:30;;;;;;;6.90;3.05;;;;;;;8.41;100.00;98117.66;1799495;78;21025;-60
2023/03/31 04:05:57;;;;;;;10.43;3.58;;;;;;;8.38;100.00;98116.52;1801126;78;21655;-59
2023/03/31 04:08:24;;;;;;;8.58;3.25;;;;;;;8.37;100.00;98115.66;1798158;78;21579;-60
2023/03/31 04:10:50;;;;;;;10.78;3.58;;;;;;;8.38;100.00;98110.02;1803808;78;21037;-59
2023/03/31 04:13:18;;;;;;;9.73;3.25;;;;;;;8.36;100.00;98101.47;1803298;78;21037;-59
2023/03/31 04:15:45;;;;;;;8.10;3.25;;;;;;;8.34;100.00;98103.33;1799863;78;21588;-59
2023/03/31 04:18:21;;;;;;;8.45;3.27;;;;;;;8.33;100.00;98105.10;1800915;78;20965;-59
2023/03/31 04:20:53;;;;;;;8.28;3.30;;;;;;;8.34;100.00;98099.43;1797674;78;21029;-59
2023/03/31 04:23:14;;;;;;;12.45;3.33;;;;;;;8.34;100.00;98098.13;1797980;78;21064;-59
2023/03/31 04:25:45;;;;;;;5.93;2.60;;;;;;;8.33;100.00;98096.47;1798285;78;20985;-59
2023/03/31 04:28:09;;;;;;;9.65;3.42;;;;;;;8.32;100.00;98096.08;1802111;78;21033;-59
2023/03/31 04:30:38;;;;;;;11.00;3.65;;;;;;;8.30;100.00;98087.09;1797520;78;21565;-59
2023/03/31 04:33:05;;;;;;;10.15;3.25;;;;;;;8.31;100.00;98087.45;1799005;78;20998;-59
2023/03/31 04:35:48;;;;;;;7.05;2.80;;;;;;;8.33;100.00;98079.09;1798192;78;21077;-59
2023/03/31 04:38:01;;;;;;;10.90;3.00;;;;;;;8.33;100.00;98082.17;1783208;78;21080;-59
2023/03/31 04:40:27;;;;;;;;;;;;;;;8.35;100.00;98084.22;1801186;78;21101;-59
2023/03/31 04:42:57;;;;;;;7.65;3.02;;;;;;;8.36;100.00;98081.50;1803838;78;20436;-59
2023/03/31 04:45:22;;;;;;;7.87;3.12;;;;;;;8.37;100.00;98077.12;1800079;78;21010;-59
2023/03/31 04:47:49;;;;;;;9.13;3.33;;;;;;;8.38;100.00;98068.41;1792656;78;21030;-60
2023/03/31 04:50:15;;;;;;;10.25;3.25;;;;;;;8.38;100.00;98071.02;1807143;78;21046;-59
2023/03/31 04:52:41;;;;;;;9.05;3.17;;;;;;;8.41;100.00;98070.84;1799153;78;21556;-58
2023/03/31 04:55:09;;;;;;;7.67;2.87;;;;;;;8.41;100.00;98066.47;1797379;78;21105;-59
2023/03/31 04:57:36;;;;;;;;;;;;;;;8.44;100.00;98061.53;1803091;78;20986;-60
2023/03/31 05:00:06;;;;;;;9.88;3.20;;;;;;;8.45;100.00;98057.99;1774229;79;20274;-60
2023/03/31 05:02:32;;;;;;;10.72;2.67;;;;;;;8.46;100.00;98054.48;1772660;79;22297;-59
2023/03/31 05:04:59;;;;;;;11.35;3.40;;;;;;;8.48;100.00;98056.48;1770712;79;22251;-59
2023/03/31 05:07:25;;;;;;;9.78;3.55;;;;;;;8.50;100.00;98059.83;1783120;79;21025;-59
2023/03/31 05:09:51;;;;;;;11.60;4.53;;;;;;;8.48;100.00;98057.79;1771163;78;20987;-60
2023/03/31 05:12:17;;;;;;;9.13;3.30;;;;;;;8.48;100.00;98051.28;1774328;79;22104;-58
2023/03/31 05:14:48;;;;;;;10.38;2.85;;;;;;;8.49;100.00;98055.58;1772330;79;21033;-58
2023/03/31 05:17:16;;;;;;;8.90;3.05;;;;;;;8.45;100.00;98049.72;1739650;79;21010;-58
2023/03/31 05:19:43;;;;;;;5.70;3.00;;;;;;;8.43;100.00;98048.14;1766165;80;21090;-59
2023/03/31 05:22:09;;;;;;;5.10;2.65;;;;;;;8.43;100.00;98048.14;1765291;80;21039;-58
2023/03/31 05:24:39;;;;;;;8.88;3.05;;;;;;;8.42;100.00;98049.09;1765838;80;21141;-58
2023/03/31 05:27:06;;;;;;;8.68;3.08;;;;;;;8.42;100.00;98046.49;1765888;79;21141;-59
2023/03/31 05:29:35;;;;;;;6.85;2.90;;;;;;;8.44;100.00;98048.53;1768008;79;21053;-58
2023/03/31 05:32:01;;;;;;;6.37;2.80;;;;;;;8.45;100.00;98044.98;1766874;80;21037;-58
2023/03/31 05:34:28;;;;;;;6.33;2.45;;;;;;;8.46;100.00;98042.77;1765095;80;21085;-58
2023/03/31 05:36:56;;;;;;;7.33;3.15;;;;;;;8.46;100.00;98050.58;1776960;79;21500;-58
2023/03/31 05:39:25;;;;;;;7.35;3.15;;;;;;;8.47;100.00;98045.73;1773090;80;20975;-58
2023/03/31 05:41:56;;;;;;;12.05;3.92;;;;;;;8.46;100.00;98042.77;1770093;80;21021;-58
2023/03/31 05:44:22;;;;;;;4.78;2.80;;;;;;;8.49;100.00;98047.77;1769250;78;21056;-58
2023/03/31 05:46:48;;;;;;;6.12;3.20;;;;;;;8.51;100.00;98048.48;1769091;80;21024;-57
2023/03/31 05:49:15;;;;;;;8.33;3.60;;;;;;;8.54;100.00;98045.67;1769802;80;21543;-58
2023/03/31 05:51:42;;;;;;;6.28;3.10;;;;;;;8.56;100.00;98038.61;1771820;80;21112;-58
2023/03/31 05:54:09;;;;;;;6.92;3.50;;;;;;;8.64;100.00;98036.81;1767077;80;20986;-59
2023/03/31 05:56:37;;;;;;;13.13;4.10;;;;;;;8.71;100.00;98033.71;1763833;80;21109;-59
2023/03/31 05:59:04;;;;;;;10.00;3.60;;;;;;;8.72;100.00;98027.56;1771148;80;21974;-59
2023/03/31 06:01:31;;;;;;;10.00;3.80;;;;;;;8.80;100.00;98030.96;1778901;80;21525;-58
2023/03/31 06:03:57;;;;;;;7.87;3.55;;;;;;;8.69;100.00;98016.06;1778154;80;21034;-59
2023/03/31 06:06:26;;;;;;;10.03;3.52;;;;;;;8.81;100.00;98036.99;1772548;80;21168;-61
2023/03/31 06:08:53;;;;;;;6.70;3.37;;;;;;;8.80;100.00;98036.16;1722159;82;21186;-59
2023/03/31 06:11:22;;;;;;;8.85;4.37;;;;;;;8.83;100.00;98029.92;1742250;81;21191;-58
2023/03/31 06:13:48;;;;;;;9.08;3.90;;;;;;;8.85;100.00;98033.23;1779146;80;21574;-58
2023/03/31 06:16:16;;;;;;;7.87;3.87;;;;;;;8.87;100.00;98026.17;1773495;80;21599;-59
2023/03/31 06:18:43;;;;;;;10.38;4.67;;;;;;;8.90;100.00;98023.36;1761493;80;20982;-58
2023/03/31 06:21:12;;;;;;;8.73;4.05;;;;;;;8.91;100.00;98023.74;1757137;80;21058;-58
2023/03/31 06:23:39;;;;;;;11.33;4.37;;;;;;;8.91;100.00;98023.27;1765421;80;21572;-59
2023/03/31 06:26:07;;;;;;;7.97;3.92;;;;;;;8.93;100.00;98025.75;1760750;80;21604;-58
2023/03/31 06:28:35;;;;;;;6.97;4.20;;;;;;;8.89;100.00;98019.09;1760974;80;21160;-58
2023/03/31 06:31:08;;;;;;;10.28;4.05;;;;;;;9.03;100.00;98028.10;1764360;79;21533;-58
2023/03/31 06:33:40;;;;;;;9.63;4.15;;;;;;;9.08;100.00;98026.50;1761038;79;21030;-59
2023/03/31 06:36:11;;;;;;;12.37;4.28;;;;;;;9.09;100.00;98028.16;1763779;79;21038;-59
2023/03/31 06:38:38;;;;;;;10.23;4.92;;;;;;;9.10;100.00;98029.36;1767846;79;21125;-59
2023/03/31 06:41:08;;;;;;;10.58;4.65;;;;;;;9.09;100.00;98026.37;1736177;80;21049;-59
2023/03/31 06:43:37;;;;;;;9.03;4.05;;;;;;;9.14;100.00;98026.08;1769254;79;21004;-59
2023/03/31 06:46:04;;;;;;;8.95;4.00;;;;;;;9.18;100.00;98028.34;1763487;79;21058;-58
2023/03/31 06:48:31;;;;;;;11.75;3.70;;;;;;;9.16;100.00;98030.24;1792720;78;21584;-59
2023/03/31 06:51:02;;;;;;;7.45;4.05;;;;;;;9.16;100.00;98028.94;1789068;78;22388;-58
2023/03/31 06:53:30;;;;;;;8.08;4.42;;;;;;;9.16;100.00;98023.73;1791440;78;21152;-59
2023/03/31 06:55:56;;;;;;;9.28;4.58;;;;;;;9.15;100.00;98023.34;1791156;78;21013;-59
2023/03/31 06:58:23;;;;;;;6.95;4.08;;;;;;;9.05;100.00;98019.73;1787150;78;21032;-59
2023/03/31 07:00:52;;;;;;;7.72;4.17;;;;;;;8.99;100.00;98029.70;1789441;78;21029;-59
2023/03/31 07:03:23;;;;;;;7.08;4.37;;;;;;;8.95;100.00;98026.48;1793997;78;22892;-59
2023/03/31 07:05:53;;;;;;;9.23;4.50;;;;;;;8.87;100.00;98025.69;1793158;78;21029;-59
2023/03/31 07:08:20;;;;;;;6.78;4.30;;;;;;;8.82;100.00;98028.23;1791504;78;20986;-59
2023/03/31 07:10:47;;;;;;;8.50;4.83;;;;;;;8.84;100.00;98028.98;1793692;78;21109;-59
2023/03/31 07:13:15;;;;;;;10.72;4.67;;;;;;;8.80;100.00;98024.93;1790426;78;21144;-59
2023/03/31 07:15:43;;;;;;;;;;;;;;;8.77;100.00;98027.73;1790010;78;21033;-58
2023/03/31 07:18:14;;;;;;;8.55;4.47;;;;;;;8.72;100.00;98021.05;1780316;78;20272;-59
2023/03/31 07:20:40;;;;;;;10.23;4.97;;;;;;;8.76;100.00;98020.85;1781490;78;21061;-58
2023/03/31 07:23:07;;;;;;;11.27;4.57;;;;;;;8.83;100.00;98022.12;1787648;78;21153;-59
2023/03/31 07:25:35;;;;;;;11.43;5.35;;;;;;;8.84;100.00;98028.98;1764571;79;21053;-58
2023/03/31 07:28:03;;;;;;;13.40;4.85;;;;;;;8.85;100.00;98017.63;1765270;79;20993;-58
2023/03/31 07:30:30;;;;;;;9.88;4.80;;;;;;;8.94;100.00;98024.83;1737957;81;21095;-58
2023/03/31 07:32:57;;;;;;;12.43;5.60;;;;;;;9.05;100.00;98022.33;1782934;79;21061;-58
2023/03/31 07:35:27;;;;;;;9.13;4.60;;;;;;;9.09;100.00;98021.17;1799602;78;21041;-59
2023/03/31 07:37:54;;;;;;;10.95;4.53;;;;;;;9.16;100.00;98019.83;1794127;78;21112;-59
2023/03/31 07:40:23;;;;;;;9.78;3.75;;;;;;;9.33;100.00;98015.23;1788103;78;21037;-59
2023/03/31 07:42:52;;;;;;;9.88;4.35;;;;;;;9.39;100.00;98006.98;1763709;79;21042;-58
2023/03/31 07:45:20;;;;;;;7.42;4.05;;;;;;;9.45;100.00;98013.06;1764262;79;21117;-59
2023/03/31 07:47:47;;;;;;;9.98;3.70;;;;;;;9.49;100.00;98007.98;1766912;79;20982;-59
2023/03/31 07:50:15;;;;;;;8.15;3.92;;;;;;;9.47;100.00;98012.50;1746155;81;21103;-59
2023/03/31 07:52:42;;;;;;;7.37;4.08;;;;;;;9.53;100.00;98012.06;1776081;79;21596;-58
2023/03/31 07:55:09;;;;;;;7.47;3.73;;;;;;;9.59;100.00;98010.32;1790074;78;21583;-59
2023/03/31 07:57:37;;;;;;;8.38;3.45;;;;;;;9.66;100.00;98011.19;1798652;78;20997;-58
2023/03/31 08:00:07;;;;;;;7.20;3.92;;;;;;;9.71;100.00;98005.19;1796847;78;21033;-58
2023/03/31 08:02:33;;;;;;;4.72;3.40;;;;;;;9.73;100.00;97999.40;1790384;78;21117;-59
2023/03/31 08:05:00;;;;;;;6.12;3.45;;;;;;;9.88;100.00;97998.77;1777063;79;20966;-59
2023/03/31 08:07:29;;;;;;;5.58;3.30;;;;;;;9.85;100.00;97991.99;1745562;81;21057;-59
2023/03/31 08:09:55;;;;;;;9.48;3.10;;;;;;;9.79;100.00;97993.74;1774196;79;21199;-59
2023/03/31 08:12:21;;;;;;;5.13;2.97;;;;;;;9.90;100.00;97999.02;1772660;78;21110;-59
2023/03/31 08:14:48;;;;;;;4.40;2.70;;;;;;;9.95;100.00;97999.52;1770999;79;20993;-59
2023/03/31 08:17:14;;;;;;;4.17;2.83;;;;;;;10.09;100.00;97995.92;1771039;79;21202;-59
2023/03/31 08:19:40;;;;;;;3.37;2.37;;;;;;;10.25;100.00;97991.70;1772628;79;21519;-59
2023/03/31 08:22:07;;;;;;;5.95;3.02;;;;;;;10.29;100.00;97990.10;1770195;79;21057;-59
2023/03/31 08:24:35;;;;;;;4.95;2.62;;;;;;;10.29;100.00;97987.97;1726171;81;21082;-59
2023/03/31 08:27:01;;;;;;;7.35;3.85;;;;;;;10.21;100.00;97996.80;1734225;80;21619;-58
2023/03/31 08:29:30;;;;;;;4.70;2.50;;;;;;;10.12;100.00;97984.44;1770514;79;21023;-59
2023/03/31 08:31:56;;;;;;;9.38;3.52;;;;;;;10.13;100.00;97986.09;1798672;78;21065;-58
2023/03/31 08:34:23;;;;;;;5.08;2.60;;;;;;;10.11;100.00;97982.75;1806093;78;20978;-58
2023/03/31 08:36:49;;;;;;;5.25;2.87;;;;;;;10.05;100.00;97982.28;1799423;78;21548;-59
2023/03/31 08:39:15;;;;;;;7.67;3.27;;;;;;;10.09;100.00;97986.31;1794819;78;21037;-59
2023/03/31 08:41:48;;;;;;;6.20;2.85;;;;;;;10.19;100.00;97976.51;1798636;78;21284;-58
2023/03/31 08:44:18;;;;;;;7.55;3.20;;;;;;;10.06;100.00;97980.02;1790212;78;21009;-59
2023/03/31 08:46:45;;;;;;;6.47;3.12;;;;;;;10.00;100.00;97984.38;1793550;78;21093;-59
2023/03/31 08:49:15;;;;;;;6.72;3.30;;;;;;;9.94;100.00;97990.05;1798615;78;21037;-59
2023/03/31 08:51:56;;;;;;;6.95;3.60;;;;;;;9.84;100.00;97983.83;1794743;78;21183;-58
2023/03/31 08:54:42;;;;;;;5.40;3.40;;;;;;;9.86;100.00;97985.86;1796130;78;21053;-58
2023/03/31 08:57:18;;;;;;;8.63;3.70;;;;;;;9.94;100.00;97976.16;1797671;78;21037;-59
2023/03/31 08:59:45;;;;;;;9.15;3.85;;;;;;;10.08;100.00;97978.14;1801519;78;21175;-59
2023/03/31 09:02:30;;;;;;;6.92;3.87;;;;;;;10.37;100.00;97975.19;1796083;78;21088;-59
2023/03/31 09:05:24;;;;;;;13.10;4.30;;;;;;;10.69;100.00;97975.86;1791056;78;21084;-59
2023/03/31 09:08:10;;;;;;;4.25;2.62;;;;;;;11.26;100.00;97976.72;1774232;78;21093;-59
2023/03/31 09:10:44;;;;;;;3.65;2.47;;;;;;;11.55;100.00;97977.90;1792311;78;21619;-59
2023/03/31 09:13:26;;;;;;;7.62;3.10;;;;;;;11.68;100.00;97972.55;1796180;78;21028;-58
2023/03/31 09:16:11;;;;;;;6.75;3.20;;;;;;;11.37;100.00;97956.67;1722917;81;21028;-59
2023/03/31 09:18:39;;;;;;;7.85;3.17;;;;;;;11.37;100.00;97956.67;1718399;82;21011;-59
2023/03/31 09:21:25;;;;;;;5.20;2.60;;;;;;;11.01;99.27;97968.64;1722041;81;21132;-59
2023/03/31 09:23:58;;;;;;;6.67;2.27;;;;;;;11.01;99.27;97968.64;1724456;81;21051;-59
2023/03/31 09:26:34;;;;;;;6.62;3.05;;;;;;;10.78;99.50;97980.38;1726291;81;21008;-59
2023/03/31 09:29:03;;;;;;;5.28;2.80;;;;;;;11.00;100.00;97973.52;1722432;81;21153;-59
2023/03/31 09:31:30;;;;;;;8.60;3.47;;;;;;;11.20;100.00;97979.34;1729820;80;21539;-59
2023/03/31 09:33:58;;;;;;;;;;;;;;;11.29;100.00;97977.34;1725069;81;21080;-58
2023/03/31 09:36:24;;;;;;;7.03;2.60;;;;;;;11.34;99.62;97979.13;1726125;80;20248;-59
2023/03/31 09:38:51;;;;;;;6.12;2.50;;;;;;;11.34;99.62;97979.13;1722121;81;21543;-59
2023/03/31 09:41:18;;;;;;;7.25;2.95;;;;;;;11.23;100.00;97979.13;1724206;81;21037;-58
2023/03/31 09:43:48;;;;;;;5.62;2.62;;;;;;;11.15;100.00;97980.20;1718828;81;21080;-58
2023/03/31 09:46:21;;;;;;;6.30;2.58;;;;;;;10.92;99.42;97978.88;1729439;81;20959;-58
2023/03/31 09:48:53;;;;;;;8.10;3.27;;;;;;;10.80;100.00;97983.70;1732501;81;21603;-58
2023/03/31 09:51:26;;;;;;;5.95;3.20;;;;;;;10.55;99.49;97986.50;1725694;81;21121;-59
2023/03/31 09:53:57;;;;;;;9.08;3.58;;;;;;;10.41;100.00;97987.05;1762917;80;21077;-59
2023/03/31 09:56:45;;;;;;;7.10;2.83;;;;;;;10.28;100.00;97983.23;1770380;80;21684;-58
2023/03/31 09:59:24;;;;;;;7.17;3.08;;;;;;;10.21;100.00;97978.54;1761577;80;21013;-59
2023/03/31 10:01:54;;;;;;;31.27;19.73;;;;;;;10.08;100.00;97987.27;1753932;79;21436;-58
2023/03/31 10:04:23;;;;;;;20.68;10.88;;;;;;;10.11;100.00;97981.00;1771291;78;21579;-58
2023/03/31 10:06:52;;;;;;;10.55;4.20;;;;;;;10.09;100.00;97982.88;1738378;81;21516;-58
2023/03/31 10:09:22;;;;;;;15.45;7.50;;;;;;;10.16;100.00;97984.08;1741739;81;21064;-58
2023/03/31 10:12:03;;;;;;;14.43;8.88;;;;;;;10.31;100.00;97982.17;1765926;79;20998;-58
2023/03/31 10:14:33;;;;;;;10.05;4.35;;;;;;;10.38;100.00;97984.67;1773088;79;20974;-59
2023/03/31 10:17:05;;;;;;;10.70;3.52;;;;;;;10.52;100.00;97991.00;1766552;79;21103;-59
2023/03/31 10:19:35;;;;;;;7.45;3.45;;;;;;;10.64;100.00;97984.50;1751721;81;21017;-58
2023/03/31 10:22:05;;;;;;;8.43;2.33;;;;;;;10.81;100.00;97976.25;1747278;80;21045;-58
2023/03/31 10:24:45;;;;;;;5.70;2.05;;;;;;;11.15;100.00;97977.10;1756634;80;21013;-58
2023/03/31 10:27:27;;;;;;;5.47;1.95;;;;;;;11.43;100.00;97971.86;1767163;80;20929;-58
2023/03/31 10:30:02;;;;;;;3.70;1.45;;;;;;;11.60;99.79;97973.63;1760380;80;20967;-58
2023/03/31 10:32:32;;;;;;;8.18;3.40;;;;;;;11.71;99.74;97973.60;1793687;78;21100;-58
2023/03/31 10:35:05;;;;;;;8.38;3.12;;;;;;;11.95;98.70;97973.91;1797880;78;21002;-59
2023/03/31 10:37:33;;;;;;;7.67;2.35;;;;;;;12.25;100.00;97974.04;1792533;78;20925;-58
2023/03/31 10:40:07;;;;;;;6.75;2.27;;;;;;;12.51;99.94;97968.44;1799419;78;20977;-58
2023/03/31 10:42:35;;;;;;;7.37;2.70;;;;;;;12.60;97.04;97967.66;1790433;78;21040;-58
2023/03/31 10:45:17;;;;;;;6.00;2.40;;;;;;;12.70;99.56;97973.80;1783964;78;21487;-59
2023/03/31 10:47:47;;;;;;;6.30;2.50;;;;;;;12.89;97.80;97967.03;1800117;78;21008;-59
2023/03/31 10:50:15;;;;;;;7.97;3.33;;;;;;;12.91;99.13;97967.70;1793478;78;21061;-59
2023/03/31 10:52:47;;;;;;;8.13;3.45;;;;;;;12.86;98.93;97976.45;1795602;78;21009;-59
2023/03/31 10:55:23;;;;;;;10.53;2.58;;;;;;;12.66;97.00;97972.41;1798276;78;21120;-59
2023/03/31 10:57:53;;;;;;;6.72;2.72;;;;;;;12.42;97.34;97967.42;1794506;78;21013;-58
2023/03/31 11:00:45;;;;;;;7.03;3.00;;;;;;;12.30;98.84;97969.27;1794603;78;21594;-59
2023/03/31 11:03:26;;;;;;;7.28;2.80;;;;;;;12.34;98.60;97971.63;1798246;78;21061;-59
2023/03/31 11:06:00;;;;;;;5.78;2.75;;;;;;;12.33;98.25;97968.67;1795284;78;20970;-59
2023/03/31 11:08:41;;;;;;;8.13;3.22;;;;;;;12.31;98.27;97970.91;1796336;78;21014;-59
2023/03/31 11:11:14;;;;;;;6.15;2.72;;;;;;;12.34;98.64;97967.70;1794409;78;21140;-59
2023/03/31 11:14:03;;;;;;;8.00;2.83;;;;;;;12.59;99.63;97958.16;1799860;78;21013;-58
2023/03/31 11:16:48;;;;;;;10.98;7.92;;;;;;;12.90;100.00;97957.72;1794858;78;21344;-58
2023/03/31 11:19:33;;;;;;;6.22;2.67;;;;;;;13.11;98.41;97948.52;1795016;78;21045;-59
2023/03/31 11:22:24;;;;;;;11.03;8.38;;;;;;;13.27;95.69;97945.91;1797158;78;20998;-58
2023/03/31 11:25:14;;;;;;;6.87;2.27;;;;;;;14.05;99.87;97935.08;1790852;78;21164;-58
2023/03/31 11:27:53;;;;;;;8.30;3.25;;;;;;;14.89;97.11;97937.06;1798348;78;21009;-58
2023/03/31 11:30:35;;;;;;;4.45;2.00;;;;;;;14.98;97.05;97939.67;1795165;78;21017;-58
2023/03/31 11:33:37;;;;;;;7.45;2.20;;;;;;;15.08;97.48;97941.42;1786735;79;21052;-58
2023/03/31 11:36:27;;;;;;;8.65;2.67;;;;;;;15.20;93.69;97937.63;1790636;79;21456;-58
2023/03/31 11:39:00;;;;;;;6.03;2.02;;;;;;;15.35;92.34;97933.56;1782401;79;21903;-58
2023/03/31 11:41:45;;;;;;;6.50;2.20;;;;;;;17.01;98.02;97931.74;1729494;81;21037;-59
2023/03/31 11:44:14;;;;;;;5.05;2.52;;;;;;;17.53;94.54;97922.41;1787226;79;20994;-59
2023/03/31 11:46:44;;;;;;;5.08;2.40;;;;;;;17.67;95.62;97924.42;1787136;79;21114;-58
2023/03/31 11:49:20;;;;;;;4.28;1.80;;;;;;;17.56;93.04;97926.05;1789406;79;21040;-59
2023/03/31 11:51:58;;;;;;;5.95;2.05;;;;;;;17.21;86.13;97922.59;1754505;79;21113;-59
2023/03/31 11:54:34;;;;;;;4.80;2.00;;;;;;;17.22;91.53;97919.00;1788364;79;21010;-59